< < Back
Terminal Aerodrome Forecast


Current Version              Previous Versions:   1  2  3  4  5  6  7  8  9  

Terminal Aerodrome Forecast

624
FTUS42 KTAE 252300
TAFDHN
TAF
KDHN 252340Z 2600/2624 22005KT P6SM SCT050 BKN250
     FM260800 23003KT 5SM BR SCT250
     FM261200 27005KT P6SM SCT040
     FM261800 27007KT P6SM VCTS BKN050CB BKN250=

Latest METAR

588
SAUS70 KWBC 260500 RRE
MTRDHN
METAR KDHN 260453Z AUTO 22006KT 7SM FEW006 25/24 A3005 RMK AO2 SLP171
T02500239


USA.gov is the U.S. government's official web portal to all federal, state and local government web resources and services.